sensor_id;sensor_type;location;lat;lon;timestamp;P1;durP1;ratioP1;P2;durP2;ratioP2
11151;SDS011;5630;49.342;10.802;2023-05-16T00:02:14;6.63;;;6.03;;
11151;SDS011;5630;49.342;10.802;2023-05-16T00:04:40;9.33;;;5.83;;
11151;SDS011;5630;49.342;10.802;2023-05-16T00:07:05;7.20;;;6.50;;
11151;SDS011;5630;49.342;10.802;2023-05-16T00:09:31;7.10;;;6.40;;
11151;SDS011;5630;49.342;10.802;2023-05-16T00:11:56;6.80;;;6.10;;
11151;SDS011;5630;49.342;10.802;2023-05-16T00:14:22;7.20;;;6.50;;
11151;SDS011;5630;49.342;10.802;2023-05-16T00:16:50;8.13;;;6.10;;
11151;SDS011;5630;49.342;10.802;2023-05-16T00:19:17;6.40;;;5.80;;
11151;SDS011;5630;49.342;10.802;2023-05-16T00:21:44;7.43;;;6.70;;
11151;SDS011;5630;49.342;10.802;2023-05-16T00:24:09;6.93;;;5.93;;
11151;SDS011;5630;49.342;10.802;2023-05-16T00:26:35;6.77;;;6.07;;
11151;SDS011;5630;49.342;10.802;2023-05-16T00:29:01;7.37;;;5.90;;
11151;SDS011;5630;49.342;10.802;2023-05-16T00:31:26;7.10;;;6.40;;
11151;SDS011;5630;49.342;10.802;2023-05-16T00:33:52;7.87;;;6.10;;
11151;SDS011;5630;49.342;10.802;2023-05-16T00:36:19;8.70;;;6.77;;
11151;SDS011;5630;49.342;10.802;2023-05-16T00:38:45;9.47;;;6.67;;
11151;SDS011;5630;49.342;10.802;2023-05-16T00:41:11;9.27;;;7.17;;
11151;SDS011;5630;49.342;10.802;2023-05-16T00:43:37;8.60;;;6.50;;
11151;SDS011;5630;49.342;10.802;2023-05-16T00:46:03;7.93;;;7.23;;
11151;SDS011;5630;49.342;10.802;2023-05-16T00:48:29;13.20;;;7.27;;
11151;SDS011;5630;49.342;10.802;2023-05-16T00:50:55;8.10;;;7.40;;
11151;SDS011;5630;49.342;10.802;2023-05-16T00:53:21;10.47;;;6.90;;
11151;SDS011;5630;49.342;10.802;2023-05-16T00:55:48;9.63;;;6.57;;
11151;SDS011;5630;49.342;10.802;2023-05-16T00:58:14;9.60;;;7.03;;
11151;SDS011;5630;49.342;10.802;2023-05-16T01:00:40;7.80;;;7.00;;
11151;SDS011;5630;49.342;10.802;2023-05-16T01:03:06;8.30;;;7.50;;
11151;SDS011;5630;49.342;10.802;2023-05-16T01:05:32;7.80;;;7.10;;
11151;SDS011;5630;49.342;10.802;2023-05-16T01:07:58;7.50;;;6.67;;
11151;SDS011;5630;49.342;10.802;2023-05-16T01:10:24;8.17;;;7.33;;
11151;SDS011;5630;49.342;10.802;2023-05-16T01:15:28;8.50;;;7.70;;
11151;SDS011;5630;49.342;10.802;2023-05-16T01:18:02;9.33;;;7.80;;
11151;SDS011;5630;49.342;10.802;2023-05-16T01:20:36;7.80;;;7.10;;
11151;SDS011;5630;49.342;10.802;2023-05-16T01:28:46;8.27;;;7.40;;
11151;SDS011;5630;49.342;10.802;2023-05-16T01:31:13;9.13;;;8.30;;
11151;SDS011;5630;49.342;10.802;2023-05-16T01:33:40;10.13;;;8.17;;
11151;SDS011;5630;49.342;10.802;2023-05-16T01:38:44;10.27;;;8.17;;
11151;SDS011;5630;49.342;10.802;2023-05-16T01:41:16;8.93;;;7.70;;
11151;SDS011;5630;49.342;10.802;2023-05-16T01:43:50;8.50;;;7.70;;
11151;SDS011;5630;49.342;10.802;2023-05-16T01:46:23;9.10;;;7.47;;
11151;SDS011;5630;49.342;10.802;2023-05-16T01:51:41;9.00;;;7.60;;
11151;SDS011;5630;49.342;10.802;2023-05-16T01:54:10;9.67;;;8.00;;
11151;SDS011;5630;49.342;10.802;2023-05-16T01:56:37;9.00;;;7.50;;
11151;SDS011;5630;49.342;10.802;2023-05-16T01:59:04;9.50;;;7.83;;
11151;SDS011;5630;49.342;10.802;2023-05-16T02:01:30;8.77;;;7.30;;
11151;SDS011;5630;49.342;10.802;2023-05-16T02:03:56;9.20;;;7.83;;
11151;SDS011;5630;49.342;10.802;2023-05-16T02:06:23;11.50;;;7.73;;
11151;SDS011;5630;49.342;10.802;2023-05-16T02:08:50;9.97;;;7.60;;
11151;SDS011;5630;49.342;10.802;2023-05-16T02:11:15;10.27;;;8.53;;
11151;SDS011;5630;49.342;10.802;2023-05-16T02:13:41;8.40;;;7.53;;
11151;SDS011;5630;49.342;10.802;2023-05-16T02:16:09;8.20;;;7.40;;
11151;SDS011;5630;49.342;10.802;2023-05-16T02:18:35;7.87;;;7.07;;
11151;SDS011;5630;49.342;10.802;2023-05-16T02:21:00;9.03;;;7.70;;
11151;SDS011;5630;49.342;10.802;2023-05-16T02:23:26;7.70;;;7.00;;
11151;SDS011;5630;49.342;10.802;2023-05-16T02:25:51;8.70;;;7.47;;
11151;SDS011;5630;49.342;10.802;2023-05-16T02:28:17;7.97;;;7.20;;
11151;SDS011;5630;49.342;10.802;2023-05-16T02:30:42;9.10;;;7.30;;
11151;SDS011;5630;49.342;10.802;2023-05-16T02:33:08;8.27;;;7.43;;
11151;SDS011;5630;49.342;10.802;2023-05-16T02:35:35;10.10;;;7.80;;
11151;SDS011;5630;49.342;10.802;2023-05-16T02:38:01;9.13;;;7.60;;
11151;SDS011;5630;49.342;10.802;2023-05-16T02:40:26;8.27;;;7.27;;
11151;SDS011;5630;49.342;10.802;2023-05-16T02:42:52;8.07;;;7.27;;
11151;SDS011;5630;49.342;10.802;2023-05-16T02:45:17;9.43;;;7.63;;
11151;SDS011;5630;49.342;10.802;2023-05-16T02:47:43;9.17;;;8.27;;
11151;SDS011;5630;49.342;10.802;2023-05-16T02:50:08;8.67;;;7.87;;
11151;SDS011;5630;49.342;10.802;2023-05-16T02:52:34;9.30;;;8.40;;
11151;SDS011;5630;49.342;10.802;2023-05-16T02:55:00;9.70;;;8.33;;
11151;SDS011;5630;49.342;10.802;2023-05-16T02:57:25;8.60;;;7.80;;
11151;SDS011;5630;49.342;10.802;2023-05-16T02:59:51;9.07;;;8.17;;
11151;SDS011;5630;49.342;10.802;2023-05-16T03:02:16;9.27;;;8.13;;
11151;SDS011;5630;49.342;10.802;2023-05-16T03:04:42;9.43;;;8.50;;
11151;SDS011;5630;49.342;10.802;2023-05-16T03:07:07;9.00;;;8.20;;
11151;SDS011;5630;49.342;10.802;2023-05-16T03:09:33;8.90;;;8.00;;
11151;SDS011;5630;49.342;10.802;2023-05-16T03:11:58;8.87;;;8.07;;
11151;SDS011;5630;49.342;10.802;2023-05-16T03:14:24;9.07;;;8.20;;
11151;SDS011;5630;49.342;10.802;2023-05-16T03:16:50;8.70;;;7.80;;
11151;SDS011;5630;49.342;10.802;2023-05-16T03:19:15;8.70;;;7.90;;
11151;SDS011;5630;49.342;10.802;2023-05-16T03:21:41;9.60;;;8.60;;
11151;SDS011;5630;49.342;10.802;2023-05-16T03:24:07;9.30;;;8.33;;
11151;SDS011;5630;49.342;10.802;2023-05-16T03:26:33;8.57;;;7.77;;
11151;SDS011;5630;49.342;10.802;2023-05-16T03:28:58;9.37;;;8.43;;
11151;SDS011;5630;49.342;10.802;2023-05-16T03:31:24;8.47;;;7.67;;
11151;SDS011;5630;49.342;10.802;2023-05-16T03:33:50;9.03;;;8.23;;
11151;SDS011;5630;49.342;10.802;2023-05-16T03:36:15;9.20;;;8.10;;
11151;SDS011;5630;49.342;10.802;2023-05-16T03:38:41;9.40;;;8.43;;
11151;SDS011;5630;49.342;10.802;2023-05-16T03:41:06;9.63;;;8.40;;
11151;SDS011;5630;49.342;10.802;2023-05-16T03:43:32;9.00;;;8.10;;
11151;SDS011;5630;49.342;10.802;2023-05-16T03:45:59;10.30;;;8.53;;
11151;SDS011;5630;49.342;10.802;2023-05-16T03:48:25;10.97;;;9.10;;
11151;SDS011;5630;49.342;10.802;2023-05-16T03:50:51;10.20;;;8.13;;
11151;SDS011;5630;49.342;10.802;2023-05-16T03:53:16;12.03;;;8.67;;
11151;SDS011;5630;49.342;10.802;2023-05-16T03:55:42;11.03;;;9.40;;
11151;SDS011;5630;49.342;10.802;2023-05-16T03:58:08;9.63;;;8.53;;
11151;SDS011;5630;49.342;10.802;2023-05-16T04:00:33;9.30;;;8.40;;
11151;SDS011;5630;49.342;10.802;2023-05-16T04:03:00;11.87;;;9.90;;
11151;SDS011;5630;49.342;10.802;2023-05-16T04:05:26;11.40;;;10.30;;
11151;SDS011;5630;49.342;10.802;2023-05-16T04:07:53;10.90;;;9.70;;
11151;SDS011;5630;49.342;10.802;2023-05-16T04:10:18;10.13;;;9.23;;
11151;SDS011;5630;49.342;10.802;2023-05-16T04:12:44;10.43;;;9.33;;
11151;SDS011;5630;49.342;10.802;2023-05-16T04:15:10;9.43;;;8.27;;
11151;SDS011;5630;49.342;10.802;2023-05-16T04:17:35;10.60;;;9.60;;
11151;SDS011;5630;49.342;10.802;2023-05-16T04:20:01;11.43;;;9.03;;
11151;SDS011;5630;49.342;10.802;2023-05-16T04:22:28;10.30;;;9.40;;
11151;SDS011;5630;49.342;10.802;2023-05-16T04:24:53;10.27;;;9.27;;
11151;SDS011;5630;49.342;10.802;2023-05-16T04:27:19;12.20;;;9.97;;
11151;SDS011;5630;49.342;10.802;2023-05-16T04:29:45;10.60;;;9.07;;
11151;SDS011;5630;49.342;10.802;2023-05-16T04:32:10;10.40;;;9.40;;
11151;SDS011;5630;49.342;10.802;2023-05-16T04:34:36;10.73;;;9.73;;
11151;SDS011;5630;49.342;10.802;2023-05-16T04:37:05;11.07;;;9.57;;
11151;SDS011;5630;49.342;10.802;2023-05-16T04:39:31;9.63;;;8.73;;
11151;SDS011;5630;49.342;10.802;2023-05-16T04:41:58;10.30;;;9.30;;
11151;SDS011;5630;49.342;10.802;2023-05-16T04:44:24;9.70;;;8.87;;
11151;SDS011;5630;49.342;10.802;2023-05-16T04:46:50;9.93;;;8.93;;
11151;SDS011;5630;49.342;10.802;2023-05-16T04:49:17;10.53;;;9.50;;
11151;SDS011;5630;49.342;10.802;2023-05-16T04:51:43;10.47;;;9.40;;
11151;SDS011;5630;49.342;10.802;2023-05-16T04:54:09;10.70;;;9.20;;
11151;SDS011;5630;49.342;10.802;2023-05-16T04:56:34;10.47;;;9.47;;
11151;SDS011;5630;49.342;10.802;2023-05-16T04:59:00;12.13;;;9.57;;
11151;SDS011;5630;49.342;10.802;2023-05-16T05:01:26;11.50;;;10.30;;
11151;SDS011;5630;49.342;10.802;2023-05-16T05:03:52;10.87;;;9.70;;
11151;SDS011;5630;49.342;10.802;2023-05-16T05:06:17;10.97;;;9.70;;
11151;SDS011;5630;49.342;10.802;2023-05-16T05:08:43;10.43;;;9.33;;
11151;SDS011;5630;49.342;10.802;2023-05-16T05:11:08;14.50;;;10.33;;
11151;SDS011;5630;49.342;10.802;2023-05-16T05:13:34;10.87;;;9.57;;
11151;SDS011;5630;49.342;10.802;2023-05-16T05:15:59;11.83;;;10.73;;
11151;SDS011;5630;49.342;10.802;2023-05-16T05:18:28;11.83;;;9.93;;
11151;SDS011;5630;49.342;10.802;2023-05-16T05:20:54;11.23;;;9.73;;
11151;SDS011;5630;49.342;10.802;2023-05-16T05:23:20;11.27;;;9.90;;
11151;SDS011;5630;49.342;10.802;2023-05-16T05:25:45;10.63;;;9.53;;
11151;SDS011;5630;49.342;10.802;2023-05-16T05:28:11;11.30;;;10.20;;
11151;SDS011;5630;49.342;10.802;2023-05-16T05:30:36;11.17;;;10.07;;
11151;SDS011;5630;49.342;10.802;2023-05-16T05:33:02;9.87;;;8.83;;
11151;SDS011;5630;49.342;10.802;2023-05-16T05:35:28;6.23;;;5.63;;
11151;SDS011;5630;49.342;10.802;2023-05-16T05:37:53;5.40;;;4.90;;
11151;SDS011;5630;49.342;10.802;2023-05-16T05:40:19;7.57;;;5.90;;
11151;SDS011;5630;49.342;10.802;2023-05-16T05:42:44;10.17;;;6.17;;
11151;SDS011;5630;49.342;10.802;2023-05-16T05:45:10;8.47;;;6.27;;
11151;SDS011;5630;49.342;10.802;2023-05-16T05:47:35;8.63;;;6.40;;
11151;SDS011;5630;49.342;10.802;2023-05-16T05:50:02;13.50;;;9.97;;
11151;SDS011;5630;49.342;10.802;2023-05-16T05:52:28;10.93;;;9.77;;
11151;SDS011;5630;49.342;10.802;2023-05-16T05:54:53;12.87;;;9.80;;
11151;SDS011;5630;49.342;10.802;2023-05-16T05:57:19;12.40;;;9.83;;
11151;SDS011;5630;49.342;10.802;2023-05-16T05:59:45;10.97;;;9.90;;
11151;SDS011;5630;49.342;10.802;2023-05-16T06:02:10;11.43;;;10.30;;
11151;SDS011;5630;49.342;10.802;2023-05-16T06:04:37;16.83;;;10.73;;
11151;SDS011;5630;49.342;10.802;2023-05-16T06:07:02;12.70;;;10.37;;
11151;SDS011;5630;49.342;10.802;2023-05-16T06:09:28;10.63;;;9.37;;
11151;SDS011;5630;49.342;10.802;2023-05-16T06:11:54;12.60;;;10.50;;
11151;SDS011;5630;49.342;10.802;2023-05-16T06:14:20;12.07;;;10.73;;
11151;SDS011;5630;49.342;10.802;2023-05-16T06:16:45;11.87;;;10.47;;
11151;SDS011;5630;49.342;10.802;2023-05-16T06:19:11;13.50;;;10.67;;
11151;SDS011;5630;49.342;10.802;2023-05-16T06:21:40;13.47;;;11.27;;
11151;SDS011;5630;49.342;10.802;2023-05-16T06:24:07;13.33;;;11.37;;
11151;SDS011;5630;49.342;10.802;2023-05-16T06:26:32;16.90;;;11.57;;
11151;SDS011;5630;49.342;10.802;2023-05-16T06:28:58;12.43;;;11.23;;
11151;SDS011;5630;49.342;10.802;2023-05-16T06:31:24;12.47;;;10.70;;
11151;SDS011;5630;49.342;10.802;2023-05-16T06:33:49;12.80;;;11.43;;
11151;SDS011;5630;49.342;10.802;2023-05-16T06:36:15;13.53;;;10.97;;
11151;SDS011;5630;49.342;10.802;2023-05-16T06:38:40;18.07;;;11.80;;
11151;SDS011;5630;49.342;10.802;2023-05-16T06:41:06;17.57;;;11.23;;
11151;SDS011;5630;49.342;10.802;2023-05-16T06:43:32;13.23;;;11.53;;
11151;SDS011;5630;49.342;10.802;2023-05-16T06:45:58;13.67;;;12.27;;
11151;SDS011;5630;49.342;10.802;2023-05-16T06:48:23;20.20;;;12.50;;
11151;SDS011;5630;49.342;10.802;2023-05-16T06:50:49;13.40;;;12.03;;
11151;SDS011;5630;49.342;10.802;2023-05-16T06:53:17;12.53;;;11.20;;
11151;SDS011;5630;49.342;10.802;2023-05-16T06:55:44;13.17;;;11.77;;
11151;SDS011;5630;49.342;10.802;2023-05-16T06:58:09;15.33;;;11.57;;
11151;SDS011;5630;49.342;10.802;2023-05-16T07:00:35;13.77;;;11.87;;
11151;SDS011;5630;49.342;10.802;2023-05-16T07:03:01;13.00;;;11.60;;
11151;SDS011;5630;49.342;10.802;2023-05-16T07:05:29;13.63;;;12.27;;
11151;SDS011;5630;49.342;10.802;2023-05-16T07:07:55;12.43;;;11.13;;
11151;SDS011;5630;49.342;10.802;2023-05-16T07:10:21;13.03;;;11.40;;
11151;SDS011;5630;49.342;10.802;2023-05-16T07:12:47;14.03;;;10.93;;
11151;SDS011;5630;49.342;10.802;2023-05-16T07:15:12;12.00;;;10.57;;
11151;SDS011;5630;49.342;10.802;2023-05-16T07:17:38;11.73;;;10.20;;
11151;SDS011;5630;49.342;10.802;2023-05-16T07:20:05;11.90;;;10.37;;
11151;SDS011;5630;49.342;10.802;2023-05-16T07:22:31;22.77;;;10.40;;
11151;SDS011;5630;49.342;10.802;2023-05-16T07:24:56;11.33;;;10.13;;
11151;SDS011;5630;49.342;10.802;2023-05-16T07:27:24;11.20;;;9.83;;
11151;SDS011;5630;49.342;10.802;2023-05-16T07:29:51;11.20;;;10.10;;
11151;SDS011;5630;49.342;10.802;2023-05-16T07:32:16;12.10;;;10.10;;
11151;SDS011;5630;49.342;10.802;2023-05-16T07:34:42;11.40;;;9.90;;
11151;SDS011;5630;49.342;10.802;2023-05-16T07:37:07;13.33;;;9.73;;
11151;SDS011;5630;49.342;10.802;2023-05-16T07:39:37;14.07;;;10.53;;
11151;SDS011;5630;49.342;10.802;2023-05-16T07:42:05;10.47;;;9.57;;
11151;SDS011;5630;49.342;10.802;2023-05-16T07:44:32;11.83;;;10.17;;
11151;SDS011;5630;49.342;10.802;2023-05-16T07:46:58;11.67;;;10.53;;
11151;SDS011;5630;49.342;10.802;2023-05-16T07:49:23;11.37;;;9.47;;
11151;SDS011;5630;49.342;10.802;2023-05-16T07:51:49;12.60;;;9.37;;
11151;SDS011;5630;49.342;10.802;2023-05-16T07:54:15;12.77;;;9.50;;
11151;SDS011;5630;49.342;10.802;2023-05-16T07:56:41;18.73;;;9.60;;
11151;SDS011;5630;49.342;10.802;2023-05-16T07:59:06;13.63;;;10.17;;
11151;SDS011;5630;49.342;10.802;2023-05-16T08:01:32;12.90;;;10.23;;
11151;SDS011;5630;49.342;10.802;2023-05-16T08:03:58;11.20;;;10.00;;
11151;SDS011;5630;49.342;10.802;2023-05-16T08:06:23;15.30;;;10.10;;
11151;SDS011;5630;49.342;10.802;2023-05-16T08:08:49;11.20;;;10.03;;
11151;SDS011;5630;49.342;10.802;2023-05-16T08:11:15;14.83;;;10.97;;
11151;SDS011;5630;49.342;10.802;2023-05-16T08:13:40;11.67;;;10.57;;
11151;SDS011;5630;49.342;10.802;2023-05-16T08:16:06;13.83;;;10.67;;
11151;SDS011;5630;49.342;10.802;2023-05-16T08:18:31;12.77;;;11.17;;
11151;SDS011;5630;49.342;10.802;2023-05-16T08:20:57;12.23;;;11.03;;
11151;SDS011;5630;49.342;10.802;2023-05-16T08:23:23;13.30;;;10.87;;
11151;SDS011;5630;49.342;10.802;2023-05-16T08:25:48;15.53;;;11.63;;
11151;SDS011;5630;49.342;10.802;2023-05-16T08:28:14;18.40;;;12.27;;
11151;SDS011;5630;49.342;10.802;2023-05-16T08:30:39;14.27;;;11.63;;
11151;SDS011;5630;49.342;10.802;2023-05-16T08:33:05;13.57;;;12.17;;
11151;SDS011;5630;49.342;10.802;2023-05-16T08:35:31;14.53;;;12.37;;
11151;SDS011;5630;49.342;10.802;2023-05-16T08:37:58;15.57;;;12.07;;
11151;SDS011;5630;49.342;10.802;2023-05-16T08:40:27;12.87;;;10.63;;
11151;SDS011;5630;49.342;10.802;2023-05-16T08:42:53;13.40;;;12.07;;
11151;SDS011;5630;49.342;10.802;2023-05-16T08:45:19;16.00;;;11.03;;
11151;SDS011;5630;49.342;10.802;2023-05-16T08:47:45;14.80;;;11.90;;
11151;SDS011;5630;49.342;10.802;2023-05-16T08:50:13;9.83;;;8.77;;
11151;SDS011;5630;49.342;10.802;2023-05-16T08:52:40;15.20;;;11.73;;
11151;SDS011;5630;49.342;10.802;2023-05-16T08:55:08;13.93;;;11.77;;
11151;SDS011;5630;49.342;10.802;2023-05-16T08:57:35;13.03;;;11.67;;
11151;SDS011;5630;49.342;10.802;2023-05-16T09:00:02;13.73;;;12.30;;
11151;SDS011;5630;49.342;10.802;2023-05-16T09:02:35;13.57;;;11.33;;
11151;SDS011;5630;49.342;10.802;2023-05-16T09:05:03;13.37;;;11.80;;
11151;SDS011;5630;49.342;10.802;2023-05-16T09:07:29;21.80;;;11.77;;
11151;SDS011;5630;49.342;10.802;2023-05-16T09:09:55;13.50;;;11.97;;
11151;SDS011;5630;49.342;10.802;2023-05-16T09:12:21;15.50;;;12.60;;
11151;SDS011;5630;49.342;10.802;2023-05-16T09:14:46;13.57;;;12.17;;
11151;SDS011;5630;49.342;10.802;2023-05-16T09:17:12;13.87;;;12.57;;
11151;SDS011;5630;49.342;10.802;2023-05-16T09:19:40;15.57;;;12.53;;
11151;SDS011;5630;49.342;10.802;2023-05-16T09:22:10;15.77;;;12.13;;
11151;SDS011;5630;49.342;10.802;2023-05-16T09:24:41;14.43;;;13.03;;
11151;SDS011;5630;49.342;10.802;2023-05-16T09:27:12;15.80;;;13.40;;
11151;SDS011;5630;49.342;10.802;2023-05-16T09:29:39;14.70;;;13.20;;
11151;SDS011;5630;49.342;10.802;2023-05-16T09:34:43;18.23;;;13.97;;
11151;SDS011;5630;49.342;10.802;2023-05-16T09:37:13;15.10;;;13.50;;
11151;SDS011;5630;49.342;10.802;2023-05-16T09:39:46;16.27;;;13.80;;
11151;SDS011;5630;49.342;10.802;2023-05-16T09:42:13;15.90;;;13.67;;
11151;SDS011;5630;49.342;10.802;2023-05-16T09:44:40;15.73;;;13.40;;
11151;SDS011;5630;49.342;10.802;2023-05-16T09:47:06;16.23;;;14.60;;
11151;SDS011;5630;49.342;10.802;2023-05-16T09:49:32;15.73;;;13.53;;
11151;SDS011;5630;49.342;10.802;2023-05-16T09:52:01;17.37;;;13.97;;
11151;SDS011;5630;49.342;10.802;2023-05-16T09:54:30;16.07;;;13.63;;
11151;SDS011;5630;49.342;10.802;2023-05-16T09:56:57;15.53;;;13.90;;
11151;SDS011;5630;49.342;10.802;2023-05-16T09:59:24;18.53;;;13.07;;
11151;SDS011;5630;49.342;10.802;2023-05-16T10:01:50;13.83;;;12.47;;
11151;SDS011;5630;49.342;10.802;2023-05-16T10:04:17;20.67;;;13.03;;
11151;SDS011;5630;49.342;10.802;2023-05-16T10:06:42;14.47;;;12.90;;
11151;SDS011;5630;49.342;10.802;2023-05-16T10:09:10;13.80;;;12.57;;
11151;SDS011;5630;49.342;10.802;2023-05-16T10:11:40;18.40;;;12.33;;
11151;SDS011;5630;49.342;10.802;2023-05-16T10:14:08;14.83;;;12.60;;
11151;SDS011;5630;49.342;10.802;2023-05-16T10:16:35;14.90;;;12.43;;
11151;SDS011;5630;49.342;10.802;2023-05-16T10:19:02;15.47;;;11.73;;
11151;SDS011;5630;49.342;10.802;2023-05-16T10:21:27;11.90;;;10.63;;
11151;SDS011;5630;49.342;10.802;2023-05-16T10:23:53;12.67;;;11.10;;
11151;SDS011;5630;49.342;10.802;2023-05-16T10:26:22;12.10;;;10.20;;
11151;SDS011;5630;49.342;10.802;2023-05-16T10:28:50;11.40;;;10.33;;
11151;SDS011;5630;49.342;10.802;2023-05-16T10:31:16;11.73;;;10.40;;
11151;SDS011;5630;49.342;10.802;2023-05-16T10:33:42;13.03;;;10.20;;
11151;SDS011;5630;49.342;10.802;2023-05-16T10:36:09;16.57;;;10.00;;
11151;SDS011;5630;49.342;10.802;2023-05-16T10:38:36;17.10;;;9.70;;
11151;SDS011;5630;49.342;10.802;2023-05-16T10:41:03;14.07;;;10.13;;
11151;SDS011;5630;49.342;10.802;2023-05-16T10:43:29;11.00;;;9.43;;
11151;SDS011;5630;49.342;10.802;2023-05-16T10:45:58;12.50;;;8.83;;
11151;SDS011;5630;49.342;10.802;2023-05-16T10:48:27;11.13;;;9.10;;
11151;SDS011;5630;49.342;10.802;2023-05-16T10:50:53;9.77;;;8.73;;
11151;SDS011;5630;49.342;10.802;2023-05-16T11:06:26;12.97;;;8.17;;
11151;SDS011;5630;49.342;10.802;2023-05-16T11:24:48;20.93;;;8.03;;
11151;SDS011;5630;49.342;10.802;2023-05-16T11:27:26;21.17;;;8.37;;
11151;SDS011;5630;49.342;10.802;2023-05-16T11:29:54;11.03;;;6.50;;
11151;SDS011;5630;49.342;10.802;2023-05-16T11:32:29;8.83;;;6.43;;
11151;SDS011;5630;49.342;10.802;2023-05-16T11:34:57;14.53;;;7.37;;
11151;SDS011;5630;49.342;10.802;2023-05-16T11:37:23;8.10;;;6.63;;
11151;SDS011;5630;49.342;10.802;2023-05-16T11:39:49;10.93;;;6.80;;
11151;SDS011;5630;49.342;10.802;2023-05-16T11:42:14;9.30;;;6.40;;
11151;SDS011;5630;49.342;10.802;2023-05-16T11:44:41;8.33;;;6.50;;
11151;SDS011;5630;49.342;10.802;2023-05-16T11:47:07;9.33;;;7.10;;
11151;SDS011;5630;49.342;10.802;2023-05-16T11:49:34;9.77;;;7.60;;
11151;SDS011;5630;49.342;10.802;2023-05-16T11:52:00;9.07;;;6.47;;
11151;SDS011;5630;49.342;10.802;2023-05-16T11:54:26;9.37;;;6.53;;
11151;SDS011;5630;49.342;10.802;2023-05-16T11:56:51;9.23;;;6.80;;
11151;SDS011;5630;49.342;10.802;2023-05-16T11:59:18;11.60;;;5.80;;
11151;SDS011;5630;49.342;10.802;2023-05-16T12:01:44;9.10;;;6.17;;
11151;SDS011;5630;49.342;10.802;2023-05-16T12:04:13;6.77;;;6.03;;
11151;SDS011;5630;49.342;10.802;2023-05-16T12:06:40;7.67;;;6.57;;
11151;SDS011;5630;49.342;10.802;2023-05-16T12:09:10;9.27;;;6.10;;
11151;SDS011;5630;49.342;10.802;2023-05-16T12:11:37;10.03;;;5.87;;
11151;SDS011;5630;49.342;10.802;2023-05-16T12:14:04;6.93;;;6.17;;
11151;SDS011;5630;49.342;10.802;2023-05-16T12:16:31;8.93;;;6.43;;
11151;SDS011;5630;49.342;10.802;2023-05-16T12:18:58;14.57;;;7.03;;
11151;SDS011;5630;49.342;10.802;2023-05-16T12:21:26;14.50;;;7.10;;
11151;SDS011;5630;49.342;10.802;2023-05-16T12:23:54;15.87;;;7.50;;
11151;SDS011;5630;49.342;10.802;2023-05-16T12:26:26;13.00;;;7.73;;
11151;SDS011;5630;49.342;10.802;2023-05-16T12:29:01;8.47;;;7.50;;
11151;SDS011;5630;49.342;10.802;2023-05-16T12:31:30;9.50;;;7.17;;
11151;SDS011;5630;49.342;10.802;2023-05-16T12:33:59;28.63;;;8.90;;
11151;SDS011;5630;49.342;10.802;2023-05-16T12:36:29;24.60;;;7.97;;
11151;SDS011;5630;49.342;10.802;2023-05-16T12:38:58;17.93;;;8.63;;
11151;SDS011;5630;49.342;10.802;2023-05-16T12:41:25;11.73;;;7.00;;
11151;SDS011;5630;49.342;10.802;2023-05-16T12:43:51;8.30;;;7.50;;
11151;SDS011;5630;49.342;10.802;2023-05-16T12:46:45;9.40;;;7.20;;
11151;SDS011;5630;49.342;10.802;2023-05-16T12:49:12;9.23;;;6.40;;
11151;SDS011;5630;49.342;10.802;2023-05-16T12:51:38;11.73;;;6.83;;
11151;SDS011;5630;49.342;10.802;2023-05-16T12:54:11;7.57;;;6.63;;
11151;SDS011;5630;49.342;10.802;2023-05-16T12:56:37;7.00;;;6.37;;
11151;SDS011;5630;49.342;10.802;2023-05-16T12:59:04;7.40;;;6.67;;
11151;SDS011;5630;49.342;10.802;2023-05-16T13:01:29;9.87;;;6.40;;
11151;SDS011;5630;49.342;10.802;2023-05-16T13:03:55;7.73;;;5.97;;
11151;SDS011;5630;49.342;10.802;2023-05-16T13:06:20;12.83;;;6.70;;
11151;SDS011;5630;49.342;10.802;2023-05-16T13:08:46;11.23;;;6.43;;
11151;SDS011;5630;49.342;10.802;2023-05-16T13:11:11;7.40;;;6.23;;
11151;SDS011;5630;49.342;10.802;2023-05-16T13:13:37;19.07;;;6.30;;
11151;SDS011;5630;49.342;10.802;2023-05-16T13:16:02;14.53;;;6.40;;
11151;SDS011;5630;49.342;10.802;2023-05-16T13:18:28;9.83;;;5.60;;
11151;SDS011;5630;49.342;10.802;2023-05-16T13:20:54;8.87;;;6.13;;
11151;SDS011;5630;49.342;10.802;2023-05-16T13:23:20;10.50;;;5.90;;
11151;SDS011;5630;49.342;10.802;2023-05-16T13:25:45;14.13;;;5.10;;
11151;SDS011;5630;49.342;10.802;2023-05-16T13:28:11;10.43;;;6.17;;
11151;SDS011;5630;49.342;10.802;2023-05-16T13:30:36;6.40;;;5.50;;
11151;SDS011;5630;49.342;10.802;2023-05-16T13:33:02;6.10;;;5.50;;
11151;SDS011;5630;49.342;10.802;2023-05-16T13:35:28;6.90;;;5.07;;
11151;SDS011;5630;49.342;10.802;2023-05-16T13:37:53;11.07;;;5.33;;
11151;SDS011;5630;49.342;10.802;2023-05-16T13:40:19;22.70;;;6.13;;
11151;SDS011;5630;49.342;10.802;2023-05-16T13:42:45;12.53;;;5.27;;
11151;SDS011;5630;49.342;10.802;2023-05-16T13:45:10;9.80;;;5.00;;
11151;SDS011;5630;49.342;10.802;2023-05-16T13:47:36;9.60;;;5.10;;
11151;SDS011;5630;49.342;10.802;2023-05-16T13:50:02;6.00;;;4.80;;
11151;SDS011;5630;49.342;10.802;2023-05-16T13:52:33;5.30;;;4.80;;
11151;SDS011;5630;49.342;10.802;2023-05-16T13:54:58;8.17;;;4.77;;
11151;SDS011;5630;49.342;10.802;2023-05-16T13:57:24;7.30;;;4.83;;
11151;SDS011;5630;49.342;10.802;2023-05-16T13:59:51;7.53;;;4.37;;
11151;SDS011;5630;49.342;10.802;2023-05-16T14:02:17;14.87;;;4.80;;
11151;SDS011;5630;49.342;10.802;2023-05-16T14:04:43;6.17;;;4.10;;
11151;SDS011;5630;49.342;10.802;2023-05-16T14:07:09;5.73;;;3.80;;
11151;SDS011;5630;49.342;10.802;2023-05-16T14:09:35;7.37;;;3.90;;
11151;SDS011;5630;49.342;10.802;2023-05-16T14:12:04;9.40;;;4.67;;
11151;SDS011;5630;49.342;10.802;2023-05-16T14:14:31;9.10;;;4.40;;
11151;SDS011;5630;49.342;10.802;2023-05-16T14:16:57;7.77;;;4.50;;
11151;SDS011;5630;49.342;10.802;2023-05-16T14:19:23;12.20;;;5.00;;
11151;SDS011;5630;49.342;10.802;2023-05-16T14:21:48;10.67;;;4.70;;
11151;SDS011;5630;49.342;10.802;2023-05-16T14:24:14;9.87;;;4.40;;
11151;SDS011;5630;49.342;10.802;2023-05-16T14:26:40;9.57;;;4.70;;
11151;SDS011;5630;49.342;10.802;2023-05-16T14:29:05;7.43;;;4.30;;
11151;SDS011;5630;49.342;10.802;2023-05-16T14:31:31;8.57;;;4.40;;
11151;SDS011;5630;49.342;10.802;2023-05-16T14:33:57;6.00;;;3.67;;
11151;SDS011;5630;49.342;10.802;2023-05-16T14:36:23;4.23;;;3.90;;
11151;SDS011;5630;49.342;10.802;2023-05-16T14:38:49;5.83;;;3.60;;
11151;SDS011;5630;49.342;10.802;2023-05-16T14:41:15;8.67;;;6.10;;
11151;SDS011;5630;49.342;10.802;2023-05-16T14:43:41;6.70;;;3.50;;
11151;SDS011;5630;49.342;10.802;2023-05-16T14:46:06;11.60;;;4.17;;
11151;SDS011;5630;49.342;10.802;2023-05-16T14:48:32;7.43;;;3.40;;
11151;SDS011;5630;49.342;10.802;2023-05-16T14:50:57;3.70;;;3.40;;
11151;SDS011;5630;49.342;10.802;2023-05-16T14:53:23;3.60;;;3.23;;
11151;SDS011;5630;49.342;10.802;2023-05-16T14:55:49;7.40;;;3.27;;
11151;SDS011;5630;49.342;10.802;2023-05-16T14:58:15;4.13;;;3.30;;
11151;SDS011;5630;49.342;10.802;2023-05-16T15:00:40;3.40;;;3.10;;
11151;SDS011;5630;49.342;10.802;2023-05-16T15:03:06;5.93;;;3.40;;
11151;SDS011;5630;49.342;10.802;2023-05-16T15:05:31;7.93;;;3.40;;
11151;SDS011;5630;49.342;10.802;2023-05-16T15:07:58;6.67;;;2.93;;
11151;SDS011;5630;49.342;10.802;2023-05-16T15:10:24;3.90;;;3.00;;
11151;SDS011;5630;49.342;10.802;2023-05-16T15:12:49;3.47;;;3.17;;
11151;SDS011;5630;49.342;10.802;2023-05-16T15:15:15;3.13;;;2.60;;
11151;SDS011;5630;49.342;10.802;2023-05-16T15:17:41;5.67;;;2.90;;